createdAt,value
2018-09-09T00:01:32.350Z,5.73
2018-09-09T00:04:06.855Z,6.40
2018-09-09T00:06:42.562Z,5.03
2018-09-09T00:09:22.394Z,5.07
2018-09-09T00:11:58.123Z,8.27
2018-09-09T00:14:32.629Z,6.00
2018-09-09T00:17:09.677Z,5.87
2018-09-09T00:19:44.127Z,4.70
2018-09-09T00:22:18.719Z,4.63
2018-09-09T00:24:54.232Z,3.93
2018-09-09T00:27:29.886Z,5.73
2018-09-09T00:30:08.811Z,5.60
2018-09-09T00:32:43.397Z,4.37
2018-09-09T00:35:17.731Z,4.67
2018-09-09T00:37:52.067Z,5.87
2018-09-09T00:40:27.581Z,5.00
2018-09-09T00:43:03.392Z,5.50
2018-09-09T00:45:40.275Z,8.37
2018-09-09T00:48:15.140Z,5.00
2018-09-09T00:50:56.467Z,6.27
2018-09-09T00:53:36.403Z,4.50
2018-09-09T00:56:10.999Z,5.30
2018-09-09T00:58:45.689Z,4.80
2018-09-09T01:01:21.234Z,5.27
2018-09-09T01:03:55.756Z,4.30
2018-09-09T01:06:31.679Z,5.20
2018-09-09T01:09:08.703Z,5.20
2018-09-09T01:11:44.779Z,5.33
2018-09-09T01:14:19.318Z,6.17
2018-09-09T01:16:55.440Z,5.37
2018-09-09T01:19:30.341Z,4.93
2018-09-09T01:22:04.901Z,5.70
2018-09-09T01:24:40.503Z,5.47
2018-09-09T01:27:16.197Z,5.00
2018-09-09T01:29:50.947Z,5.40
2018-09-09T01:32:26.885Z,5.10
2018-09-09T01:35:05.052Z,6.90
2018-09-09T01:37:40.659Z,5.90
2018-09-09T01:40:19.365Z,7.23
2018-09-09T01:42:53.827Z,4.70
2018-09-09T01:45:31.272Z,5.17
2018-09-09T01:48:05.771Z,4.97
2018-09-09T01:50:40.180Z,4.70
2018-09-09T01:53:14.615Z,4.43
2018-09-09T01:55:49.363Z,5.47
2018-09-09T01:58:23.826Z,6.93
2018-09-09T02:00:59.640Z,7.13
2018-09-09T02:03:34.011Z,8.10
2018-09-09T02:06:09.920Z,5.13
2018-09-09T02:08:44.287Z,4.93
2018-09-09T02:11:19.956Z,5.83
2018-09-09T02:13:54.197Z,4.77
2018-09-09T02:16:30.583Z,6.53
2018-09-09T02:19:04.884Z,6.00
2018-09-09T02:21:39.655Z,4.83
2018-09-09T02:24:14.891Z,5.97
2018-09-09T02:26:50.741Z,5.80
2018-09-09T02:29:25.116Z,4.77
2018-09-09T02:32:01.111Z,6.17
2018-09-09T02:34:35.619Z,6.30
2018-09-09T02:37:11.608Z,4.80
2018-09-09T02:39:47.211Z,3.93
2018-09-09T02:42:21.587Z,6.23
2018-09-09T02:44:55.926Z,5.30
2018-09-09T02:47:30.419Z,6.00
2018-09-09T02:50:04.922Z,5.20
2018-09-09T02:52:39.171Z,6.10
2018-09-09T02:55:13.917Z,5.40
2018-09-09T02:57:48.434Z,4.87
2018-09-09T03:00:24.253Z,5.60
2018-09-09T03:02:58.730Z,6.50
2018-09-09T03:05:34.337Z,6.00
2018-09-09T03:08:10.173Z,5.77
2018-09-09T03:10:46.760Z,5.07
2018-09-09T03:13:21.173Z,4.80
2018-09-09T03:16:07.984Z,5.07
2018-09-09T03:18:42.927Z,4.80
2018-09-09T03:21:17.410Z,5.90
2018-09-09T03:23:52.874Z,4.70
2018-09-09T03:26:28.723Z,5.33
2018-09-09T03:29:04.793Z,6.23
2018-09-09T03:31:40.849Z,4.73
2018-09-09T03:34:15.289Z,5.90
2018-09-09T03:36:50.907Z,7.27
2018-09-09T03:39:25.727Z,4.40
2018-09-09T03:42:00.233Z,5.60
2018-09-09T03:44:34.760Z,4.20
2018-09-09T03:47:09.304Z,5.47
2018-09-09T03:49:43.967Z,4.60
2018-09-09T03:52:18.681Z,4.70
2018-09-09T03:54:53.173Z,5.50
2018-09-09T03:57:27.798Z,4.93
2018-09-09T04:00:03.816Z,5.40
2018-09-09T04:02:38.820Z,4.87
2018-09-09T04:05:14.266Z,5.43
2018-09-09T04:07:52.651Z,6.50
2018-09-09T04:10:28.459Z,8.00
2018-09-09T04:13:04.171Z,5.77
2018-09-09T04:15:38.447Z,4.40
2018-09-09T04:18:14.071Z,4.60
2018-09-09T04:20:48.559Z,5.40
2018-09-09T04:23:23.111Z,4.33
2018-09-09T04:25:58.833Z,6.63
2018-09-09T04:28:33.194Z,5.50
2018-09-09T04:31:09.344Z,5.30
2018-09-09T04:33:45.001Z,4.53
2018-09-09T04:36:19.414Z,5.33
2018-09-09T04:38:53.897Z,5.30
2018-09-09T04:41:28.708Z,3.87
2018-09-09T04:44:03.007Z,4.93
2018-09-09T04:46:38.326Z,4.80
2018-09-09T04:49:12.647Z,4.70
2018-09-09T04:51:47.231Z,5.80
2018-09-09T04:54:21.650Z,7.80
2018-09-09T04:56:56.339Z,4.80
2018-09-09T04:59:32.143Z,4.87
2018-09-09T05:02:06.666Z,10.87
2018-09-09T05:04:43.614Z,4.90
2018-09-09T05:07:19.198Z,5.30
2018-09-09T05:09:58.980Z,5.00
2018-09-09T05:12:33.371Z,5.63
2018-09-09T05:15:07.861Z,4.80
2018-09-09T05:17:43.667Z,6.03
2018-09-09T05:20:21.864Z,5.00
2018-09-09T05:22:56.460Z,5.83
2018-09-09T05:25:32.461Z,5.67
2018-09-09T05:28:08.215Z,5.80
2018-09-09T05:30:44.375Z,4.70
2018-09-09T05:33:18.833Z,5.13
2018-09-09T05:35:53.083Z,5.07
2018-09-09T05:38:27.655Z,7.70
2018-09-09T05:41:02.099Z,6.10
2018-09-09T05:43:36.735Z,6.53
2018-09-09T05:46:11.054Z,6.90
2018-09-09T05:48:49.632Z,7.33
2018-09-09T05:51:24.007Z,5.07
2018-09-09T05:53:58.407Z,5.30
2018-09-09T05:56:33.962Z,5.70
2018-09-09T05:59:14.610Z,6.20
2018-09-09T06:01:49.100Z,6.10
2018-09-09T06:04:25.076Z,5.20
2018-09-09T06:07:00.827Z,5.03
2018-09-09T06:09:36.463Z,4.80
2018-09-09T06:12:12.334Z,7.03
2018-09-09T06:14:46.626Z,5.13
2018-09-09T06:17:22.327Z,5.30
2018-09-09T06:19:56.793Z,5.20
2018-09-09T06:22:31.363Z,4.90
2018-09-09T06:25:07.252Z,5.33
2018-09-09T06:27:42.939Z,5.37
2018-09-09T06:30:18.899Z,4.80
2018-09-09T06:32:53.635Z,5.27
2018-09-09T06:35:27.962Z,4.87
2018-09-09T06:38:02.659Z,5.67
2018-09-09T06:40:37.181Z,10.57
2018-09-09T06:43:11.741Z,5.60
2018-09-09T06:45:47.804Z,5.50
2018-09-09T06:48:22.355Z,6.13
2018-09-09T06:50:56.612Z,8.03
2018-09-09T06:53:31.217Z,7.00
2018-09-09T06:56:05.658Z,6.93
2018-09-09T06:58:40.051Z,4.90
2018-09-09T07:01:15.949Z,7.57
2018-09-09T07:03:50.567Z,5.67
2018-09-09T07:06:26.656Z,8.47
2018-09-09T07:09:05.771Z,5.10
2018-09-09T07:11:41.509Z,7.50
2018-09-09T07:14:17.803Z,5.97
2018-09-09T07:16:53.744Z,6.53
2018-09-09T07:19:28.407Z,5.80
2018-09-09T07:22:03.275Z,7.90
2018-09-09T07:24:38.844Z,6.30
2018-09-09T07:27:14.547Z,6.23
2018-09-09T07:29:49.095Z,8.27
2018-09-09T07:32:25.648Z,5.60
2018-09-09T07:35:00.264Z,7.20
2018-09-09T07:37:36.058Z,6.20
2018-09-09T07:40:10.339Z,7.83
2018-09-09T07:42:44.839Z,6.57
2018-09-09T07:45:19.391Z,6.60
2018-09-09T07:47:53.974Z,7.43
2018-09-09T07:50:28.565Z,7.57
2018-09-09T07:53:03.000Z,6.17
2018-09-09T07:55:37.655Z,7.23
2018-09-09T07:58:12.032Z,7.40
2018-09-09T08:00:50.432Z,9.43
2018-09-09T08:03:24.875Z,7.07
2018-09-09T08:06:10.501Z,6.03
2018-09-09T08:08:46.319Z,7.53
2018-09-09T08:11:21.873Z,7.30
2018-09-09T08:13:56.268Z,6.33
2018-09-09T08:16:32.364Z,5.93
2018-09-09T08:19:07.101Z,8.70
2018-09-09T08:21:41.641Z,5.30
2018-09-09T08:24:17.783Z,5.60
2018-09-09T08:26:53.638Z,6.37
2018-09-09T08:29:29.507Z,5.37
2018-09-09T08:32:05.152Z,7.07
2018-09-09T08:34:39.613Z,6.13
2018-09-09T08:37:13.878Z,8.00
2018-09-09T08:39:48.198Z,8.03
2018-09-09T08:42:22.506Z,9.17
2018-09-09T08:44:56.982Z,5.90
2018-09-09T08:47:31.496Z,9.33
2018-09-09T08:50:06.200Z,7.67
2018-09-09T08:52:41.986Z,9.53
2018-09-09T08:55:16.589Z,6.97
2018-09-09T08:57:50.870Z,9.07
2018-09-09T09:00:26.652Z,6.43
2018-09-09T09:03:01.023Z,8.40
2018-09-09T09:05:37.771Z,8.27
2018-09-09T09:08:14.760Z,8.23
2018-09-09T09:10:50.734Z,7.83
2018-09-09T09:13:25.184Z,8.83
2018-09-09T09:15:59.890Z,8.30
2018-09-09T09:18:35.598Z,7.63
2018-09-09T09:21:11.452Z,7.73
2018-09-09T09:23:45.891Z,12.67
2018-09-09T09:26:21.505Z,8.53
2018-09-09T09:28:55.911Z,12.13
2018-09-09T09:31:31.571Z,10.73
2018-09-09T09:34:05.969Z,8.20
2018-09-09T09:36:40.369Z,5.93
2018-09-09T09:39:14.691Z,8.83
2018-09-09T09:41:49.201Z,8.17
2018-09-09T09:44:23.575Z,8.67
2018-09-09T09:46:58.099Z,10.50
2018-09-09T09:49:32.556Z,6.37
2018-09-09T09:52:07.561Z,10.07
2018-09-09T09:54:42.083Z,8.40
2018-09-09T09:57:17.274Z,8.63
2018-09-09T09:59:52.739Z,7.80
2018-09-09T10:02:28.522Z,6.80
2018-09-09T10:05:03.355Z,8.37
2018-09-09T10:07:39.158Z,10.00
2018-09-09T10:10:15.285Z,6.33
2018-09-09T10:12:49.644Z,8.60
2018-09-09T10:15:24.027Z,7.70
2018-09-09T10:18:00.440Z,5.67
2018-09-09T10:20:36.436Z,5.33
2018-09-09T10:23:10.803Z,5.53
2018-09-09T10:25:46.715Z,5.73
2018-09-09T10:28:21.187Z,5.10
2018-09-09T10:30:57.619Z,6.40
2018-09-09T10:33:32.052Z,4.80
2018-09-09T10:36:06.804Z,5.07
2018-09-09T10:38:41.157Z,5.73
2018-09-09T10:41:15.758Z,5.00
2018-09-09T10:43:50.276Z,6.03
2018-09-09T10:46:24.974Z,3.63
2018-09-09T10:48:59.324Z,4.60
2018-09-09T10:51:34.068Z,5.30
2018-09-09T10:54:09.857Z,5.27
2018-09-09T10:56:44.683Z,5.20
2018-09-09T10:59:20.463Z,5.00
2018-09-09T11:01:56.151Z,3.67
2018-09-09T11:04:30.600Z,6.53
2018-09-09T11:07:07.496Z,4.23
2018-09-09T11:09:44.008Z,3.97
2018-09-09T11:12:23.759Z,3.77
2018-09-09T11:14:59.527Z,6.37
2018-09-09T11:17:35.168Z,3.40
2018-09-09T11:20:09.547Z,3.67
2018-09-09T11:22:43.925Z,5.10
2018-09-09T11:28:01.061Z,4.63
2018-09-09T11:30:37.167Z,4.23
2018-09-09T11:33:11.835Z,4.07
2018-09-09T11:35:47.164Z,7.63
2018-09-09T11:38:21.507Z,5.70
2018-09-09T11:40:55.933Z,3.90
2018-09-09T11:43:30.379Z,5.83
2018-09-09T11:46:05.026Z,3.50
2018-09-09T11:48:39.391Z,3.90
2018-09-09T11:51:15.388Z,3.97
2018-09-09T11:53:49.902Z,3.30
2018-09-09T11:56:26.995Z,5.20
2018-09-09T11:59:02.662Z,3.00
2018-09-09T12:01:37.370Z,3.20
2018-09-09T12:04:11.762Z,5.10
2018-09-09T12:06:47.856Z,5.17
2018-09-09T12:09:23.311Z,3.87
2018-09-09T12:11:58.890Z,4.40
2018-09-09T12:14:34.603Z,3.50
2018-09-09T12:17:10.451Z,4.93
2018-09-09T12:19:44.781Z,2.93
2018-09-09T12:22:19.942Z,3.37
2018-09-09T12:24:55.898Z,5.20
2018-09-09T12:27:32.023Z,3.57
2018-09-09T12:30:11.038Z,3.40
2018-09-09T12:32:45.842Z,3.40
2018-09-09T12:35:21.847Z,2.93
2018-09-09T12:37:56.418Z,3.17
2018-09-09T12:40:30.812Z,3.23
2018-09-09T12:43:11.971Z,2.90
2018-09-09T12:45:51.674Z,3.73
2018-09-09T12:48:32.547Z,2.60
2018-09-09T12:51:08.556Z,2.60
2018-09-09T12:53:43.308Z,3.97
2018-09-09T12:56:17.623Z,2.97
2018-09-09T12:58:56.936Z,2.20
2018-09-09T13:01:31.199Z,2.30
2018-09-09T13:04:05.935Z,6.43
2018-09-09T13:06:41.676Z,2.60
2018-09-09T13:09:17.543Z,2.60
2018-09-09T13:11:53.543Z,4.13
2018-09-09T13:14:28.068Z,2.87
2018-09-09T13:17:10.175Z,2.47
2018-09-09T13:19:44.535Z,2.67
2018-09-09T13:22:19.265Z,2.70
2018-09-09T13:24:56.243Z,3.33
2018-09-09T13:27:31.948Z,2.47
2018-09-09T13:30:10.928Z,3.50
2018-09-09T13:32:53.508Z,3.27
2018-09-09T13:35:27.803Z,4.37
2018-09-09T13:38:03.212Z,4.77
2018-09-09T13:40:37.682Z,3.60
2018-09-09T13:43:12.059Z,2.87
2018-09-09T13:45:46.352Z,3.97
2018-09-09T13:48:22.443Z,6.37
2018-09-09T13:50:56.927Z,3.43
2018-09-09T13:53:31.452Z,3.70
2018-09-09T13:56:05.974Z,4.60
2018-09-09T13:58:41.638Z,2.60
2018-09-09T14:01:15.732Z,2.57
2018-09-09T14:03:50.278Z,3.13
2018-09-09T14:06:26.055Z,2.80
2018-09-09T14:09:08.281Z,2.80
2018-09-09T14:13:09.784Z,4.43
2018-09-09T14:15:44.081Z,3.77
2018-09-09T14:18:19.303Z,7.50
2018-09-09T14:20:53.647Z,13.73
2018-09-09T14:23:28.427Z,11.80
2018-09-09T14:26:04.386Z,23.27
2018-09-09T14:28:38.755Z,4.30
2018-09-09T14:31:14.503Z,11.07
2018-09-09T14:33:49.085Z,4.20
2018-09-09T14:36:23.529Z,4.70
2018-09-09T14:38:57.896Z,10.20
2018-09-09T14:41:32.348Z,5.17
2018-09-09T14:44:08.147Z,4.13
2018-09-09T14:46:42.768Z,3.90
2018-09-09T14:49:18.436Z,6.10
2018-09-09T14:51:53.018Z,10.40
2018-09-09T14:54:28.103Z,5.90
2018-09-09T14:57:02.436Z,4.10
2018-09-09T14:59:39.370Z,8.07
2018-09-09T15:02:15.061Z,3.97
2018-09-09T15:04:49.666Z,4.77
2018-09-09T15:07:32.687Z,8.73
2018-09-09T15:10:08.814Z,4.60
2018-09-09T15:12:44.808Z,6.27
2018-09-09T15:15:20.787Z,4.30
2018-09-09T15:17:56.415Z,4.63
2018-09-09T15:20:30.873Z,3.07
2018-09-09T15:23:05.759Z,5.57
2018-09-09T15:25:45.210Z,5.27
2018-09-09T15:28:19.739Z,5.73
2018-09-09T15:30:55.637Z,3.10
2018-09-09T15:33:30.434Z,3.20
2018-09-09T15:36:05.244Z,4.60
2018-09-09T15:38:39.707Z,4.37
2018-09-09T15:41:17.471Z,4.17
2018-09-09T15:43:52.836Z,3.10
2018-09-09T15:46:27.208Z,4.17
2018-09-09T15:49:01.630Z,3.63
2018-09-09T15:51:36.500Z,2.50
2018-09-09T15:54:10.911Z,3.30
2018-09-09T15:56:45.514Z,3.17
2018-09-09T15:59:20.934Z,6.57
2018-09-09T16:01:57.447Z,2.17
2018-09-09T16:04:34.703Z,2.80
2018-09-09T16:07:10.231Z,2.50
2018-09-09T16:09:46.116Z,3.87
2018-09-09T16:12:21.896Z,3.27
2018-09-09T16:14:56.705Z,4.13
2018-09-09T16:17:34.047Z,3.00
2018-09-09T16:20:08.278Z,3.10
2018-09-09T16:22:42.776Z,2.30
2018-09-09T16:25:19.133Z,3.17
2018-09-09T16:27:54.794Z,3.40
2018-09-09T16:30:30.762Z,3.33
2018-09-09T16:33:05.347Z,3.03
2018-09-09T16:35:40.117Z,2.97
2018-09-09T16:38:15.631Z,2.93
2018-09-09T16:40:50.071Z,3.60
2018-09-09T16:43:24.486Z,3.43
2018-09-09T16:45:58.870Z,4.60
2018-09-09T16:48:33.807Z,3.20
2018-09-09T16:51:08.594Z,4.90
2018-09-09T16:53:44.013Z,4.50
2018-09-09T16:56:27.903Z,4.30
2018-09-09T16:59:04.700Z,4.20
2018-09-09T17:01:41.034Z,5.60
2018-09-09T17:04:17.319Z,5.90
2018-09-09T17:06:54.002Z,9.13
2018-09-09T17:09:29.983Z,8.17
2018-09-09T17:12:06.314Z,5.30
2018-09-09T17:14:41.490Z,6.13
2018-09-09T17:17:17.387Z,7.30
2018-09-09T17:19:53.123Z,4.30
2018-09-09T17:22:27.950Z,4.80
2018-09-09T17:25:03.795Z,6.90
2018-09-09T17:27:41.892Z,5.63
2018-09-09T17:30:18.163Z,5.50
2018-09-09T17:32:54.436Z,8.53
2018-09-09T17:35:29.524Z,6.40
2018-09-09T17:38:04.125Z,6.10
2018-09-09T17:40:38.805Z,5.73
2018-09-09T17:43:14.419Z,7.43
2018-09-09T17:45:51.070Z,7.40
2018-09-09T17:48:27.782Z,6.63
2018-09-09T17:51:02.542Z,7.23
2018-09-09T17:53:37.120Z,6.97
2018-09-09T17:56:11.772Z,6.40
2018-09-09T17:58:48.334Z,10.43
2018-09-09T18:01:24.528Z,7.83
2018-09-09T18:03:58.996Z,12.83
2018-09-09T18:06:35.059Z,17.37
2018-09-09T18:09:11.727Z,15.90
2018-09-09T18:11:47.743Z,6.33
2018-09-09T18:14:22.611Z,5.93
2018-09-09T18:17:00.337Z,5.83
2018-09-09T18:19:35.140Z,5.60
2018-09-09T18:22:09.864Z,5.93
2018-09-09T18:24:49.268Z,7.50
2018-09-09T18:27:26.168Z,4.07
2018-09-09T18:30:18.824Z,5.00
2018-09-09T18:32:54.784Z,7.10
2018-09-09T18:35:29.701Z,7.50
2018-09-09T18:40:45.554Z,6.43
2018-09-09T18:43:20.214Z,7.50
2018-09-09T18:45:58.270Z,5.23
2018-09-09T18:48:33.304Z,7.47
2018-09-09T18:51:08.116Z,7.50
2018-09-09T18:53:42.441Z,6.90
2018-09-09T18:56:17.758Z,6.70
2018-09-09T18:58:57.321Z,5.00
2018-09-09T19:01:32.779Z,4.80
2018-09-09T19:04:07.441Z,6.70
2018-09-09T19:06:47.186Z,5.17
2018-09-09T19:09:27.203Z,4.87
2018-09-09T19:12:06.444Z,4.20
2018-09-09T19:14:41.383Z,6.03
2018-09-09T19:17:20.215Z,5.60
2018-09-09T19:19:55.863Z,7.97
2018-09-09T19:22:30.835Z,8.07
2018-09-09T19:25:10.402Z,7.43
2018-09-09T19:27:59.837Z,8.87
2018-09-09T19:30:38.316Z,13.10
2018-09-09T19:33:16.834Z,14.17
2018-09-09T19:35:51.406Z,15.73
2018-09-09T19:38:26.739Z,15.37
2018-09-09T19:41:01.711Z,18.47
2018-09-09T19:43:41.309Z,19.30
2018-09-09T19:46:15.944Z,17.60
2018-09-09T19:48:50.724Z,21.40
2018-09-09T19:51:25.179Z,22.33
2018-09-09T19:54:03.724Z,21.13
2018-09-09T19:56:39.452Z,15.70
2018-09-09T19:59:15.235Z,16.83
2018-09-09T20:01:50.979Z,19.00
2018-09-09T20:04:26.655Z,11.83
2018-09-09T20:07:02.196Z,13.90
2018-09-09T20:09:37.971Z,12.13
2018-09-09T20:12:13.782Z,6.87
2018-09-09T20:14:51.578Z,11.57
2018-09-09T20:17:29.126Z,6.60
2018-09-09T20:20:05.060Z,6.60
2018-09-09T20:22:40.836Z,7.90
2018-09-09T20:25:16.707Z,7.73
2018-09-09T20:27:52.979Z,7.70
2018-09-09T20:30:29.033Z,5.90
2018-09-09T20:33:03.671Z,5.90
2018-09-09T20:35:38.058Z,5.20
2018-09-09T20:38:13.059Z,4.50
2018-09-09T20:40:47.497Z,4.90
2018-09-09T20:43:22.159Z,6.43
2018-09-09T20:45:56.722Z,4.97
2018-09-09T20:48:31.897Z,5.77
2018-09-09T20:51:06.375Z,8.17
2018-09-09T20:53:42.728Z,8.40
2018-09-09T20:56:17.210Z,5.03
2018-09-09T20:58:53.483Z,5.13
2018-09-09T21:01:28.181Z,5.03
2018-09-09T21:04:02.944Z,4.70
2018-09-09T21:06:39.063Z,4.60
2018-09-09T21:09:14.933Z,9.60
2018-09-09T21:11:51.452Z,18.63
2018-09-09T21:14:26.202Z,30.17
2018-09-09T21:17:03.432Z,32.83
2018-09-09T21:19:39.755Z,29.47
2018-09-09T21:22:15.483Z,28.50
2018-09-09T21:24:51.484Z,28.67
2018-09-09T21:27:27.479Z,24.63
2018-09-09T21:30:12.131Z,25.20
2018-09-09T21:32:46.933Z,22.20
2018-09-09T21:35:21.580Z,19.60
2018-09-09T21:37:55.985Z,18.10
2018-09-09T21:40:30.907Z,21.37
2018-09-09T21:43:05.523Z,15.90
2018-09-09T21:45:41.388Z,16.60
2018-09-09T21:48:15.991Z,17.87
2018-09-09T21:50:51.697Z,11.40
2018-09-09T21:54:50.851Z,12.27
2018-09-09T21:57:26.971Z,12.40
2018-09-09T22:00:01.971Z,12.30
2018-09-09T22:02:37.964Z,15.30
2018-09-09T22:05:13.811Z,8.97
2018-09-09T22:07:49.802Z,11.80
2018-09-09T22:10:25.935Z,10.90
2018-09-09T22:13:00.290Z,11.67
2018-09-09T22:15:36.281Z,8.07
2018-09-09T22:18:12.063Z,7.83
2018-09-09T22:20:46.512Z,8.30
2018-09-09T22:23:20.925Z,9.03
2018-09-09T22:25:56.542Z,7.70
2018-09-09T22:28:36.884Z,8.63
2018-09-09T22:31:12.775Z,10.60
2018-09-09T22:33:47.210Z,7.83
2018-09-09T22:36:21.548Z,9.87
2018-09-09T22:38:56.184Z,9.63
2018-09-09T22:41:30.454Z,7.90
2018-09-09T22:44:05.491Z,8.33
2018-09-09T22:46:39.927Z,6.27
2018-09-09T22:49:15.590Z,9.27
2018-09-09T22:51:50.088Z,8.10
2018-09-09T22:54:26.180Z,7.50
2018-09-09T22:57:00.527Z,10.90
2018-09-09T22:59:36.111Z,6.77
2018-09-09T23:02:10.455Z,6.80
2018-09-09T23:04:45.163Z,8.43
2018-09-09T23:07:20.915Z,8.50
2018-09-09T23:10:03.284Z,7.23
2018-09-09T23:12:38.705Z,6.13
2018-09-09T23:15:13.111Z,10.27
2018-09-09T23:17:48.815Z,6.30
2018-09-09T23:20:23.384Z,6.97
2018-09-09T23:22:57.816Z,7.47
2018-09-09T23:25:33.149Z,6.00
2018-09-09T23:28:08.603Z,4.57
2018-09-09T23:30:44.464Z,5.40
2018-09-09T23:33:18.766Z,9.60
2018-09-09T23:35:53.699Z,5.20
2018-09-09T23:38:28.195Z,6.80
2018-09-09T23:41:02.732Z,7.53
2018-09-09T23:43:42.888Z,4.43
2018-09-09T23:46:19.142Z,5.20
2018-09-09T23:48:53.675Z,4.70
2018-09-09T23:51:28.114Z,4.43
2018-09-09T23:54:02.559Z,4.70
2018-09-09T23:56:36.951Z,5.37
2018-09-09T23:59:11.289Z,4.33
